KFSI

Henry Post AAF (Fort Sill) Airport

Fort Sill, Oklahoma, USA
METAR KFSI 231956Z AUTO 13009KT 10SM OVC090 22/07 A3018 RMK AO2 SLP216 T02160074
Observed Flight Rules
Oct-23 @ 19:56 UTC (36 minutes ago) Visual Flight Rules
Wind Visibility Clouds
130° at 9 knots 10 miles
  • Overcast at 9,000' AGL
Temperatures Readings
Current 22°C / 72°F
Dewpoint 7°C / 45°F
Humidity 38%
Altimeter 30.18" Hg
Pressure 1021.6 hPa
Elevation 362
METAR KFSI 231956Z AUTO 13009KT 10SM OVC090 22/07 A3018 RMK AO2 SLP216 T02160074
Observed Flight Rules
Oct-23 @ 19:56 UTC
(36 minutes ago)
VFR
Wind Visibility
130° at 9 knots 10 miles
Clouds
  • Overcast at 9,000' AGL
Temperature Dewpoint
22°C / 72°F 7°C / 45°F
Humidity Altimeter Pressure
38% 30.18" Hg 1021.6 hPa